createdAt,value
2022-08-12T00:00:16.989Z,19.58
2022-08-12T00:03:13.651Z,19.73
2022-08-12T00:06:05.213Z,19.64
2022-08-12T00:08:51.499Z,19.72
2022-08-12T00:11:40.815Z,19.61
2022-08-12T00:14:29.611Z,19.54
2022-08-12T00:17:25.176Z,19.50
2022-08-12T00:20:21.039Z,19.49
2022-08-12T00:23:12.254Z,19.41
2022-08-12T00:26:21.829Z,19.43
2022-08-12T00:29:05.804Z,19.34
2022-08-12T00:31:54.099Z,19.33
2022-08-12T00:34:45.646Z,19.32
2022-08-12T00:37:33.253Z,19.32
2022-08-12T00:40:32.972Z,19.18
2022-08-12T00:43:25.649Z,19.12
2022-08-12T00:46:14.719Z,19.20
2022-08-12T00:49:01.182Z,19.19
2022-08-12T00:51:54.381Z,19.28
2022-08-12T00:54:44.039Z,19.34
2022-08-12T00:57:33.250Z,19.08
2022-08-12T01:00:23.547Z,19.12
2022-08-12T01:03:10.829Z,19.11
2022-08-12T01:05:59.691Z,19.09
2022-08-12T01:08:45.937Z,19.17
2022-08-12T01:11:34.645Z,19.08
2022-08-12T01:14:25.436Z,18.96
2022-08-12T01:17:10.484Z,18.94
2022-08-12T01:19:57.777Z,18.89
2022-08-12T01:23:00.692Z,18.87
2022-08-12T01:25:56.326Z,18.91
2022-08-12T01:28:42.939Z,18.94
2022-08-12T01:31:28.883Z,19.00
2022-08-12T01:34:35.827Z,19.03
2022-08-12T01:37:24.751Z,19.12
2022-08-12T01:40:31.647Z,19.04
2022-08-12T01:43:21.447Z,19.05
2022-08-12T01:46:06.359Z,19.14
2022-08-12T01:49:02.182Z,19.14
2022-08-12T01:52:19.869Z,19.16
2022-08-12T01:54:56.685Z,19.02
2022-08-12T01:57:58.636Z,18.96
2022-08-12T02:00:55.192Z,18.99
2022-08-12T02:03:53.681Z,18.88
2022-08-12T02:06:47.916Z,18.80
2022-08-12T02:09:49.897Z,18.80
2022-08-12T02:12:37.953Z,18.71
2022-08-12T02:15:31.926Z,18.71
2022-08-12T02:18:17.157Z,18.68
2022-08-12T02:21:12.779Z,18.63
2022-08-12T02:24:02.637Z,18.68
2022-08-12T02:26:48.487Z,18.68
2022-08-12T02:29:39.640Z,18.56
2022-08-12T02:32:25.932Z,18.57
2022-08-12T02:35:12.128Z,18.53
2022-08-12T02:38:00.807Z,18.41
2022-08-12T02:40:48.762Z,18.35
2022-08-12T02:43:46.052Z,18.44
2022-08-12T02:46:36.405Z,18.48
2022-08-12T02:49:29.873Z,18.27
2022-08-12T02:52:19.308Z,18.76
2022-08-12T02:55:34.611Z,19.51
2022-08-12T02:58:20.519Z,20.27
2022-08-12T03:01:24.888Z,20.19
2022-08-12T03:04:20.203Z,20.27
2022-08-12T03:07:11.704Z,20.35
2022-08-12T03:10:07.140Z,20.35
2022-08-12T03:12:59.660Z,20.35
2022-08-12T03:15:48.272Z,20.24
2022-08-12T03:18:46.375Z,20.35
2022-08-12T03:21:53.021Z,20.30
2022-08-12T03:24:40.589Z,20.31
2022-08-12T03:27:26.957Z,20.38
2022-08-12T03:30:12.479Z,20.14
2022-08-12T03:32:58.787Z,20.17
2022-08-12T03:35:48.070Z,20.40
2022-08-12T03:38:38.173Z,20.54
2022-08-12T03:41:25.085Z,20.41
2022-08-12T03:44:31.340Z,20.08
2022-08-12T03:47:31.267Z,20.10
2022-08-12T03:50:20.913Z,19.57
2022-08-12T03:53:07.392Z,19.83
2022-08-12T03:55:52.721Z,19.85
2022-08-12T03:58:38.429Z,19.85
2022-08-12T04:01:23.708Z,20.03
2022-08-12T04:04:11.207Z,19.82
2022-08-12T04:07:02.881Z,20.16
2022-08-12T04:09:47.919Z,20.27
2022-08-12T04:12:33.282Z,20.63
2022-08-12T04:15:21.819Z,20.41
2022-08-12T04:18:10.663Z,20.25
2022-08-12T04:21:01.341Z,20.37
2022-08-12T04:23:48.632Z,20.04
2022-08-12T04:26:37.237Z,19.85
2022-08-12T04:30:29.786Z,20.12
2022-08-12T04:32:33.883Z,20.30
2022-08-12T04:35:19.443Z,19.92
2022-08-12T04:38:07.854Z,20.26
2022-08-12T04:40:57.091Z,20.27
2022-08-12T04:44:00.129Z,20.12
2022-08-12T04:46:47.225Z,19.81
2022-08-12T04:49:33.292Z,19.77
2022-08-12T04:52:18.645Z,19.85
2022-08-12T04:55:08.886Z,20.07
2022-08-12T04:57:54.105Z,20.18
2022-08-12T05:00:39.393Z,20.26
2022-08-12T05:03:28.731Z,20.36
2022-08-12T05:06:35.290Z,20.30
2022-08-12T05:09:20.467Z,20.44
2022-08-12T05:12:10.386Z,20.58
2022-08-12T05:14:55.705Z,20.73
2022-08-12T05:17:44.747Z,20.76
2022-08-12T05:20:30.069Z,20.69
2022-08-12T05:23:19.046Z,20.71
2022-08-12T05:26:07.085Z,20.77
2022-08-12T05:28:55.756Z,20.94
2022-08-12T05:31:47.777Z,21.13
2022-08-12T05:34:36.713Z,21.01
2022-08-12T05:37:27.428Z,21.02
2022-08-12T05:40:15.709Z,21.26
2022-08-12T05:43:06.717Z,21.27
2022-08-12T05:45:54.925Z,21.31
2022-08-12T05:48:43.462Z,20.72
2022-08-12T05:51:40.690Z,20.35
2022-08-12T05:54:47.584Z,20.40
2022-08-12T05:57:35.423Z,20.50
2022-08-12T06:00:21.524Z,20.50
2022-08-12T06:03:06.953Z,20.65
2022-08-12T06:05:54.838Z,20.77
2022-08-12T06:08:44.122Z,21.17
2022-08-12T06:11:34.818Z,21.56
2022-08-12T06:14:19.786Z,21.75
2022-08-12T06:17:11.986Z,21.88
2022-08-12T06:20:26.830Z,22.24
2022-08-12T06:23:03.371Z,22.58
2022-08-12T06:25:51.667Z,22.82
2022-08-12T06:28:40.425Z,22.85
2022-08-12T06:31:27.234Z,23.06
2022-08-12T06:35:26.915Z,23.42
2022-08-12T06:37:21.090Z,23.84
2022-08-12T06:40:16.335Z,23.95
2022-08-12T06:43:05.035Z,23.96
2022-08-12T06:45:52.744Z,24.03
2022-08-12T06:48:37.799Z,24.21
2022-08-12T06:51:30.088Z,23.86
2022-08-12T06:54:27.179Z,23.56
2022-08-12T06:58:08.044Z,23.75
2022-08-12T07:00:32.390Z,24.16
2022-08-12T07:03:23.073Z,24.35
2022-08-12T07:06:15.026Z,24.67
2022-08-12T07:09:04.416Z,24.46
2022-08-12T07:11:52.962Z,24.92
2022-08-12T07:14:46.998Z,24.92
2022-08-12T07:17:36.900Z,25.13
2022-08-12T07:20:51.297Z,25.46
2022-08-12T07:23:34.602Z,25.49
2022-08-12T07:26:26.779Z,25.34
2022-08-12T07:29:12.734Z,25.90
2022-08-12T07:32:01.171Z,25.91
2022-08-12T07:34:46.467Z,26.21
2022-08-12T07:37:34.738Z,26.00
2022-08-12T07:40:25.147Z,26.53
2022-08-12T07:43:10.586Z,26.09
2022-08-12T07:45:59.798Z,26.25
2022-08-12T07:48:52.785Z,26.52
2022-08-12T07:51:44.126Z,26.50
2022-08-12T07:54:29.738Z,26.74
2022-08-12T07:57:18.142Z,26.94
2022-08-12T08:00:05.575Z,26.85
2022-08-12T08:02:54.622Z,27.19
2022-08-12T08:05:41.234Z,27.10
2022-08-12T08:08:27.296Z,27.10
2022-08-12T08:11:12.526Z,27.28
2022-08-12T08:14:00.089Z,27.54
2022-08-12T08:16:45.698Z,27.64
2022-08-12T08:19:30.913Z,27.60
2022-08-12T08:22:16.650Z,27.32
2022-08-12T08:25:35.320Z,27.27
2022-08-12T08:28:19.822Z,27.31
2022-08-12T08:31:04.890Z,27.28
2022-08-12T08:34:09.612Z,27.04
2022-08-12T08:36:58.263Z,27.03
2022-08-12T08:39:44.069Z,27.11
2022-08-12T08:42:29.419Z,27.31
2022-08-12T08:45:17.263Z,27.40
2022-08-12T08:48:02.393Z,27.26
2022-08-12T08:51:04.487Z,27.47
2022-08-12T08:53:53.132Z,27.39
2022-08-12T08:56:45.080Z,27.60
2022-08-12T08:59:34.765Z,27.44
2022-08-12T09:02:19.610Z,27.79
2022-08-12T09:05:14.870Z,27.80
2022-08-12T09:08:13.065Z,28.10
2022-08-12T09:11:06.386Z,28.15
2022-08-12T09:14:12.411Z,27.83
2022-08-12T09:17:01.765Z,27.97
2022-08-12T09:19:55.089Z,28.11
2022-08-12T09:22:42.710Z,28.07
2022-08-12T09:25:38.624Z,28.05
2022-08-12T09:28:32.857Z,27.68
2022-08-12T09:32:03.727Z,27.25
2022-08-12T09:34:33.271Z,27.06
2022-08-12T09:37:22.804Z,27.04
2022-08-12T09:41:02.329Z,27.13
2022-08-12T09:43:24.927Z,27.28
2022-08-12T09:46:21.927Z,27.35
2022-08-12T09:49:13.371Z,27.40
2022-08-12T09:52:01.706Z,27.44
2022-08-12T09:54:48.348Z,27.42
2022-08-12T09:58:08.209Z,27.58
2022-08-12T10:00:52.122Z,27.97
2022-08-12T10:04:03.231Z,28.40
2022-08-12T10:06:53.811Z,28.31
2022-08-12T10:09:58.185Z,28.30
2022-08-12T10:13:07.220Z,28.50
2022-08-12T10:16:01.513Z,28.72
2022-08-12T10:18:51.900Z,28.87
2022-08-12T10:21:42.335Z,28.76
2022-08-12T10:24:27.455Z,28.81
2022-08-12T10:27:17.098Z,28.97
2022-08-12T10:30:41.703Z,29.09
2022-08-12T10:33:19.163Z,29.05
2022-08-12T10:36:14.119Z,29.12
2022-08-12T10:39:00.814Z,29.00
2022-08-12T10:41:57.047Z,28.88
2022-08-12T10:44:44.377Z,28.77
2022-08-12T10:48:07.324Z,28.67
2022-08-12T10:51:01.890Z,28.05
2022-08-12T10:53:52.849Z,27.48
2022-08-12T10:56:38.562Z,27.28
2022-08-12T10:59:39.195Z,27.30
2022-08-12T11:04:18.688Z,27.09
2022-08-12T11:07:06.268Z,26.91
2022-08-12T11:08:50.441Z,26.85
2022-08-12T11:12:35.332Z,26.79
2022-08-12T11:14:51.415Z,26.81
2022-08-12T11:17:51.957Z,26.82
2022-08-12T11:20:38.783Z,27.17
2022-08-12T11:23:35.783Z,27.34
2022-08-12T11:26:22.290Z,27.19
2022-08-12T11:29:22.176Z,27.04
2022-08-12T11:32:07.710Z,26.99
2022-08-12T11:34:59.489Z,27.30
2022-08-12T11:37:59.177Z,27.54
2022-08-12T11:40:44.873Z,27.42
2022-08-12T11:43:30.928Z,27.35
2022-08-12T11:46:19.499Z,27.17
2022-08-12T11:49:05.468Z,27.22
2022-08-12T11:51:57.588Z,27.52
2022-08-12T11:54:51.044Z,27.58
2022-08-12T11:58:03.916Z,27.52
2022-08-12T12:04:00.461Z,27.65
2022-08-12T12:06:53.194Z,27.89
2022-08-12T12:09:52.837Z,27.96
2022-08-12T12:12:49.722Z,28.18
2022-08-12T12:15:41.308Z,28.21
2022-08-12T12:18:31.751Z,28.18
2022-08-12T12:21:47.934Z,28.24
2022-08-12T12:24:27.420Z,28.29
2022-08-12T12:27:12.336Z,28.43
2022-08-12T12:30:19.886Z,28.61
2022-08-12T12:33:17.713Z,28.83
2022-08-12T12:36:17.042Z,28.66
2022-08-12T12:39:10.583Z,28.31
2022-08-12T12:42:45.408Z,28.42
2022-08-12T12:45:01.446Z,28.37
2022-08-12T12:47:58.542Z,28.50
2022-08-12T12:50:45.647Z,28.59
2022-08-12T12:54:09.031Z,28.33
2022-08-12T12:56:48.974Z,28.33
2022-08-12T12:59:56.330Z,28.38
2022-08-12T13:02:44.026Z,28.42
2022-08-12T13:05:45.835Z,28.61
2022-08-12T13:08:42.371Z,28.28
2022-08-12T13:11:39.224Z,28.10
2022-08-12T13:14:28.056Z,28.04
2022-08-12T13:17:18.117Z,28.06
2022-08-12T13:20:05.078Z,28.06
2022-08-12T13:22:51.415Z,28.10
2022-08-12T13:25:51.822Z,28.23
2022-08-12T13:28:42.910Z,28.31
2022-08-12T13:31:29.006Z,28.27
2022-08-12T13:34:34.962Z,28.29
2022-08-12T13:37:24.163Z,28.36
2022-08-12T13:40:09.819Z,28.36
2022-08-12T13:42:56.252Z,28.29
2022-08-12T13:45:43.978Z,28.29
2022-08-12T13:48:33.675Z,28.21
2022-08-12T13:51:40.649Z,28.00
2022-08-12T13:54:30.085Z,27.89
2022-08-12T13:57:19.112Z,27.92
2022-08-12T14:00:04.746Z,27.98
2022-08-12T14:02:54.077Z,28.15
2022-08-12T14:05:39.899Z,28.18
2022-08-12T14:08:37.600Z,28.26
2022-08-12T14:11:32.394Z,28.27
2022-08-12T14:14:35.724Z,28.51
2022-08-12T14:17:24.042Z,28.43
2022-08-12T14:20:20.303Z,28.44
2022-08-12T14:23:34.239Z,28.45
2022-08-12T14:26:17.073Z,28.32
2022-08-12T14:29:07.435Z,28.36
2022-08-12T14:31:55.481Z,28.38
2022-08-12T14:34:50.582Z,28.38
2022-08-12T14:37:56.932Z,28.27
2022-08-12T14:40:45.127Z,28.25
2022-08-12T14:43:44.330Z,28.17
2022-08-12T14:46:42.646Z,28.20
2022-08-12T14:50:37.327Z,28.18
2022-08-12T14:59:23.169Z,28.20
2022-08-12T15:02:12.633Z,28.22
2022-08-12T15:05:01.013Z,28.21
2022-08-12T15:07:53.450Z,28.20
2022-08-12T15:10:58.209Z,28.21
2022-08-12T15:13:45.629Z,28.21
2022-08-12T15:16:31.268Z,28.23
2022-08-12T15:20:10.935Z,28.22
2022-08-12T15:22:38.414Z,28.21
2022-08-12T15:25:40.192Z,28.19
2022-08-12T15:28:33.649Z,28.16
2022-08-12T15:31:28.332Z,28.12
2022-08-12T15:34:32.686Z,28.18
2022-08-12T15:37:19.047Z,28.10
2022-08-12T15:40:30.368Z,28.11
2022-08-12T15:43:50.906Z,28.18
2022-08-12T15:46:25.736Z,28.12
2022-08-12T15:49:16.879Z,28.08
2022-08-12T15:52:05.318Z,28.03
2022-08-12T15:54:50.957Z,27.98
2022-08-12T15:57:40.121Z,27.92
2022-08-12T16:00:33.287Z,27.88
2022-08-12T16:03:28.320Z,27.86
2022-08-12T16:07:00.731Z,27.85
2022-08-12T16:10:04.834Z,27.90
2022-08-12T16:12:54.646Z,27.92
2022-08-12T16:15:51.045Z,27.88
2022-08-12T16:18:52.760Z,27.86
2022-08-12T16:21:51.478Z,27.83
2022-08-12T16:24:52.639Z,27.84
2022-08-12T16:27:38.510Z,27.81
2022-08-12T16:30:31.439Z,27.79
2022-08-12T16:33:17.906Z,27.75
2022-08-12T16:36:11.335Z,27.80
2022-08-12T16:39:03.222Z,27.80
2022-08-12T16:41:48.440Z,27.72
2022-08-12T16:44:34.963Z,27.72
2022-08-12T16:47:27.299Z,27.73
2022-08-12T16:50:15.902Z,27.64
2022-08-12T16:53:03.592Z,27.60
2022-08-12T16:55:52.013Z,27.54
2022-08-12T16:58:37.335Z,27.45
2022-08-12T17:01:25.853Z,27.42
2022-08-12T17:04:11.203Z,27.42
2022-08-12T17:06:56.559Z,27.34
2022-08-12T17:09:48.180Z,27.20
2022-08-12T17:12:37.337Z,27.12
2022-08-12T17:15:50.937Z,27.03
2022-08-12T17:18:43.342Z,26.91
2022-08-12T17:21:41.744Z,26.85
2022-08-12T17:24:44.061Z,26.74
2022-08-12T17:27:57.285Z,26.65
2022-08-12T17:30:51.242Z,26.57
2022-08-12T17:33:45.351Z,26.51
2022-08-12T17:36:37.459Z,26.51
2022-08-12T17:40:12.314Z,26.39
2022-08-12T17:42:39.885Z,26.30
2022-08-12T17:45:29.173Z,26.22
2022-08-12T17:48:17.536Z,26.05
2022-08-12T17:51:08.425Z,25.99
2022-08-12T17:54:10.906Z,25.99
2022-08-12T17:56:57.916Z,25.92
2022-08-12T17:59:49.948Z,25.87
2022-08-12T18:02:41.538Z,25.83
2022-08-12T18:05:27.682Z,25.75
2022-08-12T18:08:40.107Z,25.88
2022-08-12T18:12:04.273Z,25.86
2022-08-12T18:14:41.592Z,25.82
2022-08-12T18:17:39.545Z,25.73
2022-08-12T18:20:29.001Z,25.68
2022-08-12T18:23:15.356Z,25.58
2022-08-12T18:26:15.853Z,25.65
2022-08-12T18:29:05.493Z,25.53
2022-08-12T18:31:59.761Z,25.53
2022-08-12T18:34:56.267Z,25.52
2022-08-12T18:37:42.691Z,25.46
2022-08-12T18:40:27.796Z,25.42
2022-08-12T18:43:15.888Z,25.38
2022-08-12T18:46:02.718Z,25.36
2022-08-12T18:48:52.511Z,25.30
2022-08-12T18:51:48.861Z,25.27
2022-08-12T18:54:36.027Z,25.19
2022-08-12T18:58:07.736Z,25.10
2022-08-12T19:00:27.749Z,25.11
2022-08-12T19:03:39.223Z,25.12
2022-08-12T19:06:19.872Z,25.24
2022-08-12T19:09:09.929Z,25.08
2022-08-12T19:11:55.544Z,25.08
2022-08-12T19:14:43.833Z,25.01
2022-08-12T19:17:56.537Z,25.06
2022-08-12T19:20:48.079Z,25.02
2022-08-12T19:23:42.188Z,25.02
2022-08-12T19:26:27.995Z,24.79
2022-08-12T19:29:14.948Z,25.05
2022-08-12T19:32:04.826Z,24.95
2022-08-12T19:38:03.679Z,24.91
2022-08-12T19:40:55.048Z,25.03
2022-08-12T19:44:00.324Z,25.15
2022-08-12T19:46:51.992Z,25.03
2022-08-12T19:49:48.488Z,24.85
2022-08-12T19:52:34.105Z,24.76
2022-08-12T19:55:26.362Z,24.95
2022-08-12T19:58:18.159Z,24.63
2022-08-12T20:01:04.709Z,24.22
2022-08-12T20:03:56.098Z,23.99
2022-08-12T20:06:51.315Z,23.87
2022-08-12T20:09:44.952Z,23.81
2022-08-12T20:12:34.520Z,23.74
2022-08-12T20:15:44.760Z,23.70
2022-08-12T20:18:44.399Z,23.64
2022-08-12T20:21:40.641Z,23.48
2022-08-12T20:24:31.463Z,23.51
2022-08-12T20:27:53.748Z,23.43
2022-08-12T20:30:53.126Z,23.37
2022-08-12T20:33:50.713Z,23.46
2022-08-12T20:36:42.729Z,23.47
2022-08-12T20:39:53.526Z,23.41
2022-08-12T20:42:35.783Z,23.40
2022-08-12T20:45:25.970Z,23.49
2022-08-12T20:48:29.634Z,23.34
2022-08-12T20:51:19.092Z,23.23
2022-08-12T20:54:07.482Z,23.09
2022-08-12T20:56:55.840Z,23.04
2022-08-12T20:59:47.914Z,22.99
2022-08-12T21:02:34.425Z,22.98
2022-08-12T21:05:21.948Z,22.93
2022-08-12T21:08:07.469Z,22.85
2022-08-12T21:14:52.904Z,22.64
2022-08-12T21:17:33.870Z,22.58
2022-08-12T21:20:44.146Z,22.49
2022-08-12T21:23:38.677Z,22.47
2022-08-12T21:26:33.223Z,22.44
2022-08-12T21:29:31.405Z,22.43
2022-08-12T21:32:41.129Z,22.47
2022-08-12T21:35:26.339Z,22.37
2022-08-12T21:38:14.930Z,22.30
2022-08-12T21:41:15.969Z,22.27
2022-08-12T21:44:08.601Z,22.25
2022-08-12T21:47:22.645Z,22.19
2022-08-12T21:50:11.532Z,22.16
2022-08-12T21:53:10.307Z,22.18
2022-08-12T21:55:56.792Z,22.05
2022-08-12T21:58:41.946Z,22.04
2022-08-12T22:01:33.657Z,21.89
2022-08-12T22:04:32.049Z,21.91
2022-08-12T22:07:21.588Z,21.86
2022-08-12T22:10:17.816Z,21.87
2022-08-12T22:14:02.010Z,21.77
2022-08-12T22:16:46.861Z,21.64
2022-08-12T22:19:38.660Z,21.59
2022-08-12T22:22:32.774Z,21.54
2022-08-12T22:25:22.176Z,21.59
2022-08-12T22:28:08.939Z,21.61
2022-08-12T22:31:00.884Z,21.55
2022-08-12T22:33:59.446Z,21.55
2022-08-12T22:36:48.949Z,21.44
2022-08-12T22:39:43.923Z,21.40
2022-08-12T22:42:39.474Z,21.33
2022-08-12T22:45:27.045Z,21.27
2022-08-12T22:48:26.488Z,21.40
2022-08-12T22:51:15.377Z,21.39
2022-08-12T22:54:06.856Z,21.48
2022-08-12T22:57:48.911Z,21.29
2022-08-12T23:00:40.910Z,21.30
2022-08-12T23:03:49.435Z,21.36
2022-08-12T23:06:34.584Z,21.50
2022-08-12T23:09:34.560Z,21.32
2022-08-12T23:12:39.582Z,21.36
2022-08-12T23:15:32.779Z,21.43
2022-08-12T23:18:20.975Z,21.50
2022-08-12T23:21:13.494Z,21.39
2022-08-12T23:24:10.355Z,21.41
2022-08-12T23:26:56.589Z,21.38
2022-08-12T23:30:17.567Z,21.55
2022-08-12T23:32:59.847Z,21.44
2022-08-12T23:36:02.375Z,21.54
2022-08-12T23:38:49.040Z,21.44
2022-08-12T23:41:56.530Z,21.41
2022-08-12T23:44:59.268Z,21.42
2022-08-12T23:47:48.954Z,21.64
2022-08-12T23:50:40.897Z,21.68
2022-08-12T23:53:26.153Z,21.74
2022-08-12T23:56:17.826Z,21.72
2022-08-12T23:59:06.556Z,21.90
